Time;durP1;ratioP1;P1;durP2;ratioP2;P2;SDS_P1;SDS_P2;PMS_P1;PMS_P2;Temp;Humidity;BMP_temperature;BMP_pressure;BME280_temperature;BME280_humidity;BME280_pressure;Samples;Min_cycle;Max_cycle;Signal;HPM_P1;HPM_P2
2021/10/26 00:00:04;;;;;;;9.63;6.35;;;;;;;12.85;93.42;99811.31;5042496;28;20230;-72
2021/10/26 00:02:30;;;;;;;10.05;6.43;;;;;;;12.70;95.17;99822.09;5046881;28;20191;-74
2021/10/26 00:04:57;;;;;;;7.68;6.18;;;;;;;12.77;95.21;99821.72;5047633;28;20537;-72
2021/10/26 00:07:25;;;;;;;8.02;6.72;;;;;;;12.81;94.29;99812.47;5047274;28;20183;-73
2021/10/26 00:09:51;;;;;;;9.57;6.15;;;;;;;12.73;95.09;99821.94;5042634;28;20287;-73
2021/10/26 00:12:18;;;;;;;9.15;6.72;;;;;;;12.65;95.29;99821.53;5043318;28;20206;-73
2021/10/26 00:14:45;;;;;;;7.65;6.40;;;;;;;12.72;95.23;99814.78;5041710;28;20210;-74
2021/10/26 00:17:12;;;;;;;8.48;6.70;;;;;;;12.75;95.20;99815.56;5052567;28;20510;-72
2021/10/26 00:19:39;;;;;;;7.85;5.57;;;;;;;12.79;94.99;99822.50;5054362;28;20208;-72
2021/10/26 00:22:05;;;;;;;11.70;7.57;;;;;;;12.81;94.77;99821.44;5044604;28;20607;-72
2021/10/26 00:24:34;;;;;;;8.25;6.15;;;;;;;13.01;91.98;99820.16;5040258;28;20276;-73
2021/10/26 00:27:01;;;;;;;8.32;6.13;;;;;;;12.97;92.72;99824.03;5038197;28;20196;-74
2021/10/26 00:29:28;;;;;;;11.27;6.65;;;;;;;13.09;90.93;99828.66;5053803;28;20575;-73
2021/10/26 00:31:55;;;;;;;9.73;8.10;;;;;;;13.05;91.71;99824.41;5054006;28;20293;-73
2021/10/26 00:34:21;;;;;;;7.40;6.00;;;;;;;13.03;92.37;99820.94;5060044;28;20723;-74
2021/10/26 00:36:48;;;;;;;6.80;5.13;;;;;;;12.85;92.45;99819.41;5049885;28;20284;-73
2021/10/26 00:39:15;;;;;;;9.55;5.60;;;;;;;12.80;93.02;99821.53;5052415;28;20205;-73
2021/10/26 00:41:43;;;;;;;5.90;5.28;;;;;;;12.80;93.74;99819.72;5049279;28;20196;-73
2021/10/26 00:44:10;;;;;;;7.35;5.85;;;;;;;12.96;92.18;99827.72;5049569;28;20279;-73
2021/10/26 00:46:37;;;;;;;7.20;5.28;;;;;;;13.03;91.47;99823.63;5053852;28;20668;-73
2021/10/26 00:49:09;;;;;;;6.93;5.70;;;;;;;13.01;91.33;99824.69;5053601;28;20198;-72
2021/10/26 00:51:36;;;;;;;6.50;4.72;;;;;;;12.91;92.00;99824.41;5050301;28;20191;-73
2021/10/26 00:54:05;;;;;;;5.93;4.80;;;;;;;12.82;92.33;99817.78;5053150;28;20567;-73
2021/10/26 00:56:32;;;;;;;8.70;5.35;;;;;;;12.92;92.13;99821.63;5057594;28;20666;-73
2021/10/26 00:59:01;;;;;;;7.30;4.88;;;;;;;12.90;92.10;99826.25;5049896;28;20187;-73
2021/10/26 01:01:28;;;;;;;7.03;5.43;;;;;;;12.92;91.96;99827.03;5047637;28;20553;-74
2021/10/26 01:03:54;;;;;;;6.25;5.10;;;;;;;13.09;90.91;99815.13;5043566;28;20202;-73
2021/10/26 01:06:21;;;;;;;10.45;5.82;;;;;;;13.23;89.76;99821.44;5048706;28;20277;-73
2021/10/26 01:08:49;;;;;;;9.10;5.05;;;;;;;13.06;90.27;99819.84;5058257;28;20203;-73
2021/10/26 01:11:17;;;;;;;10.30;5.95;;;;;;;13.00;91.08;99818.44;5047974;28;20190;-74
2021/10/26 01:13:45;;;;;;;6.78;4.43;;;;;;;12.94;91.92;99816.97;5053049;28;20648;-73
2021/10/26 01:16:13;;;;;;;9.10;5.40;;;;;;;13.13;90.84;99818.47;5056576;28;20202;-73
2021/10/26 01:18:39;;;;;;;6.15;5.28;;;;;;;13.19;90.32;99828.91;5049684;28;20192;-72
2021/10/26 01:21:07;;;;;;;7.60;5.00;;;;;;;13.05;90.72;99812.72;5051387;28;20287;-73
2021/10/26 01:23:34;;;;;;;7.28;5.10;;;;;;;13.08;91.35;99826.03;5048722;28;20284;-73
2021/10/26 01:26:01;;;;;;;5.68;5.10;;;;;;;13.17;90.59;99825.44;5046127;28;20266;-74
2021/10/26 01:28:28;;;;;;;5.38;4.78;;;;;;;13.11;90.82;99824.00;5045680;28;20210;-73
2021/10/26 01:30:55;;;;;;;6.70;4.82;;;;;;;12.88;92.27;99830.03;5046014;28;20186;-73
2021/10/26 01:33:22;;;;;;;9.20;5.38;;;;;;;12.89;93.04;99821.81;5046300;28;20199;-73
2021/10/26 01:35:48;;;;;;;8.80;5.25;;;;;;;13.03;91.83;99818.22;5055806;28;20212;-73
2021/10/26 01:38:16;;;;;;;6.32;5.40;;;;;;;13.12;91.34;99827.59;5050520;28;20632;-73
2021/10/26 01:40:43;;;;;;;7.60;4.68;;;;;;;13.10;91.12;99826.81;5050293;28;20208;-73
2021/10/26 01:43:09;;;;;;;7.43;5.20;;;;;;;13.00;91.96;99826.53;5051110;28;20193;-73
2021/10/26 01:45:36;;;;;;;7.55;5.75;;;;;;;13.04;91.68;99825.34;5051260;28;20190;-73
2021/10/26 01:48:03;;;;;;;8.00;4.38;;;;;;;12.98;91.65;99819.47;5051581;28;20191;-73
2021/10/26 01:50:29;;;;;;;6.03;5.40;;;;;;;13.09;91.27;99831.34;5056785;28;20284;-73
2021/10/26 01:52:56;;;;;;;9.90;5.05;;;;;;;12.76;93.07;99828.13;5051195;28;20201;-73
2021/10/26 01:55:24;;;;;;;10.18;5.88;;;;;;;12.77;93.42;99832.53;5052316;28;20205;-73
2021/10/26 01:57:51;;;;;;;6.82;5.10;;;;;;;12.80;93.95;99827.81;5050509;28;20522;-73
2021/10/26 02:00:20;;;;;;;7.45;5.07;;;;;;;12.77;93.87;99832.53;5057491;28;20555;-74
2021/10/26 02:02:47;;;;;;;6.38;5.32;;;;;;;12.57;95.05;99825.69;5045110;28;20190;-73
2021/10/26 02:05:14;;;;;;;8.32;5.43;;;;;;;12.48;95.71;99835.22;5052032;28;20649;-73
2021/10/26 02:07:41;;;;;;;6.90;5.40;;;;;;;12.54;96.34;99828.59;5050384;28;20603;-73
2021/10/26 02:10:08;;;;;;;9.00;6.35;;;;;;;12.54;95.34;99831.28;5051864;28;20195;-73
2021/10/26 02:12:37;;;;;;;7.70;5.70;;;;;;;12.38;95.99;99842.19;5046978;28;20202;-73
2021/10/26 02:15:06;;;;;;;6.68;5.35;;;;;;;12.50;95.73;99833.31;5054192;28;20690;-73
2021/10/26 02:17:32;;;;;;;11.00;6.05;;;;;;;12.40;96.36;99826.75;5051251;28;20194;-73
2021/10/26 02:19:59;;;;;;;9.73;5.85;;;;;;;12.75;94.49;99837.16;5051520;28;20272;-72
2021/10/26 02:22:26;;;;;;;8.98;6.07;;;;;;;12.41;96.43;99842.84;5050933;28;20198;-73
2021/10/26 02:24:53;;;;;;;7.60;5.53;;;;;;;12.40;97.62;99838.41;5053947;28;20189;-73
2021/10/26 02:27:19;;;;;;;9.25;6.07;;;;;;;12.67;95.94;99843.06;5051708;28;20640;-73
2021/10/26 02:29:47;;;;;;;7.95;6.00;;;;;;;12.70;94.96;99834.75;5051656;28;20217;-73
2021/10/26 02:32:14;;;;;;;11.30;6.50;;;;;;;12.89;93.49;99842.59;5050670;28;20195;-73
2021/10/26 02:34:41;;;;;;;9.02;5.85;;;;;;;12.98;92.13;99847.41;5049861;28;20220;-73
2021/10/26 02:37:07;;;;;;;6.35;5.32;;;;;;;13.00;92.12;99844.56;5051205;28;20196;-72
2021/10/26 02:39:34;;;;;;;6.80;5.20;;;;;;;12.76;92.86;99842.47;5050791;28;20285;-73
2021/10/26 02:42:00;;;;;;;8.57;5.57;;;;;;;12.92;92.71;99845.94;5051692;28;20183;-73
2021/10/26 02:44:27;;;;;;;9.77;6.20;;;;;;;12.81;93.35;99843.06;5043742;28;20178;-74
2021/10/26 02:46:55;;;;;;;11.90;6.50;;;;;;;12.98;92.54;99847.41;5044869;28;20613;-73
2021/10/26 02:49:22;;;;;;;9.68;5.53;;;;;;;13.01;90.91;99849.03;5058278;28;20192;-74
2021/10/26 02:51:49;;;;;;;6.60;5.65;;;;;;;12.94;91.64;99852.13;5049745;28;20194;-73
2021/10/26 02:54:15;;;;;;;7.50;5.60;;;;;;;12.95;91.74;99847.56;5047002;28;20211;-72
2021/10/26 02:56:43;;;;;;;9.43;6.78;;;;;;;12.95;91.64;99847.56;5052337;28;20187;-73
2021/10/26 02:59:09;;;;;;;8.48;5.88;;;;;;;12.96;92.08;99851.13;5041494;28;20194;-71
2021/10/26 03:01:36;;;;;;;7.00;5.60;;;;;;;12.96;91.53;99843.91;5045423;28;20190;-72
2021/10/26 03:04:04;;;;;;;8.52;5.97;;;;;;;12.96;90.97;99849.31;5043985;28;20183;-72
2021/10/26 03:06:31;;;;;;;12.25;6.25;;;;;;;13.01;89.93;99847.19;5041740;28;20703;-74
2021/10/26 03:08:57;;;;;;;5.25;4.75;;;;;;;13.05;89.56;99853.28;5046975;28;20190;-72
2021/10/26 03:11:24;;;;;;;9.10;6.25;;;;;;;12.98;90.02;99843.81;5043753;28;20198;-74
2021/10/26 03:13:51;;;;;;;8.77;5.78;;;;;;;12.86;91.38;99843.63;5058702;28;20189;-73
2021/10/26 03:16:17;;;;;;;9.18;5.97;;;;;;;12.83;91.83;99845.66;5045970;28;20202;-73
2021/10/26 03:18:44;;;;;;;10.75;6.07;;;;;;;13.05;89.87;99848.72;5041806;28;20195;-73
2021/10/26 03:21:12;;;;;;;9.48;5.35;;;;;;;12.89;90.22;99843.44;5043343;28;20568;-74
2021/10/26 03:23:38;;;;;;;10.38;6.57;;;;;;;12.94;89.82;99845.84;5043027;28;20196;-73
2021/10/26 03:26:05;;;;;;;8.15;6.57;;;;;;;12.93;90.29;99842.28;5054705;28;20190;-73
2021/10/26 03:28:32;;;;;;;7.60;5.70;;;;;;;12.87;90.88;99845.38;5050022;28;21055;-73
2021/10/26 03:31:01;;;;;;;9.05;5.53;;;;;;;12.87;90.75;99844.50;5050509;28;20227;-73
2021/10/26 03:33:28;;;;;;;6.60;5.88;;;;;;;12.91;90.68;99846.03;5050783;28;20199;-73
2021/10/26 03:35:55;;;;;;;8.77;6.47;;;;;;;12.84;90.88;99844.69;5049797;28;20209;-72
2021/10/26 03:38:23;;;;;;;8.18;6.63;;;;;;;12.94;90.68;99853.97;5050537;28;20207;-72
2021/10/26 03:40:50;;;;;;;8.98;6.50;;;;;;;12.98;90.34;99846.50;5050859;28;20624;-72
2021/10/26 03:43:16;;;;;;;8.32;6.18;;;;;;;12.83;91.53;99851.94;5044238;28;20285;-73
2021/10/26 03:45:43;;;;;;;9.68;7.65;;;;;;;12.66;92.78;99844.00;5045225;28;20193;-73
2021/10/26 03:48:10;;;;;;;9.20;7.43;;;;;;;12.71;93.55;99850.03;5048790;28;20190;-73
2021/10/26 03:50:36;;;;;;;8.77;6.70;;;;;;;12.89;91.61;99856.97;5064576;28;20545;-74
2021/10/26 03:53:03;;;;;;;12.30;7.03;;;;;;;12.85;92.14;99859.94;5052931;28;20192;-73
2021/10/26 03:55:31;;;;;;;6.97;6.07;;;;;;;13.08;90.19;99853.94;5050859;28;20293;-73
2021/10/26 03:57:59;;;;;;;10.80;7.55;;;;;;;12.86;91.41;99857.13;5049832;28;20201;-74
2021/10/26 04:00:25;;;;;;;11.85;7.30;;;;;;;12.85;92.80;99865.34;5059930;28;20188;-74
2021/10/26 04:02:52;;;;;;;14.07;8.18;;;;;;;12.86;92.59;99867.09;5049838;28;20183;-72
2021/10/26 04:05:22;;;;;;;9.55;6.40;;;;;;;12.77;93.21;99862.25;5054335;28;20314;-72
2021/10/26 04:07:54;;;;;;;9.77;7.50;;;;;;;12.83;94.64;99865.44;5052494;28;20191;-73
2021/10/26 04:10:31;;;;;;;12.85;7.80;;;;;;;12.74;98.17;99857.91;5048635;28;20201;-73
2021/10/26 04:13:02;;;;;;;11.95;7.60;;;;;;;12.50;100.00;99863.91;5051212;28;20185;-73
2021/10/26 04:15:29;;;;;;;10.95;7.70;;;;;;;12.48;100.00;99865.81;5049675;28;20213;-73
2021/10/26 04:17:56;;;;;;;11.23;7.82;;;;;;;12.65;100.00;99866.59;5049945;28;20276;-73
2021/10/26 04:20:22;;;;;;;9.88;7.93;;;;;;;12.58;100.00;99870.66;5053326;28;20196;-73
2021/10/26 04:22:49;;;;;;;10.00;7.25;;;;;;;12.66;100.00;99874.63;5051174;28;20648;-73
2021/10/26 04:25:15;;;;;;;11.45;8.40;;;;;;;12.69;100.00;99871.72;5053525;28;20214;-73
2021/10/26 04:27:42;;;;;;;12.65;8.35;;;;;;;12.75;100.00;99867.75;5049370;28;20190;-73
2021/10/26 04:30:13;;;;;;;9.52;7.10;;;;;;;12.73;100.00;99870.56;5051815;28;20222;-72
2021/10/26 04:32:40;;;;;;;11.65;7.68;;;;;;;12.61;100.00;99881.25;5062054;28;20542;-72
2021/10/26 04:35:08;;;;;;;15.15;8.68;;;;;;;12.54;100.00;99883.47;5053396;28;20606;-71
2021/10/26 04:37:35;;;;;;;13.25;7.55;;;;;;;12.51;100.00;99878.28;5052820;28;20198;-73
2021/10/26 04:40:02;;;;;;;11.23;8.32;;;;;;;12.61;100.00;99881.25;5052456;28;20209;-73
2021/10/26 04:42:29;;;;;;;9.40;6.93;;;;;;;12.70;100.00;99886.94;5060431;28;20194;-73
2021/10/26 04:44:56;;;;;;;11.23;7.82;;;;;;;12.72;100.00;99885.03;5050236;28;20189;-73
2021/10/26 04:47:25;;;;;;;11.43;8.55;;;;;;;12.64;100.00;99884.66;5047488;28;20206;-72
2021/10/26 04:49:51;;;;;;;10.30;7.75;;;;;;;12.71;100.00;99882.44;5053345;28;20284;-73
2021/10/26 04:52:18;;;;;;;9.63;7.65;;;;;;;12.69;100.00;99879.81;5046486;28;20186;-73
2021/10/26 04:54:44;;;;;;;12.50;8.57;;;;;;;12.79;100.00;99881.94;5050878;28;20694;-72
2021/10/26 04:57:11;;;;;;;8.77;7.88;;;;;;;12.71;100.00;99886.00;5038415;28;20271;-73
2021/10/26 04:59:38;;;;;;;10.95;9.07;;;;;;;12.63;100.00;99880.19;5051670;28;20284;-73
2021/10/26 05:02:04;;;;;;;9.85;8.88;;;;;;;12.71;100.00;99888.72;5050426;28;20294;-73
2021/10/26 05:04:32;;;;;;;10.57;9.48;;;;;;;12.68;100.00;99883.47;5050649;28;20191;-72
2021/10/26 05:06:59;;;;;;;9.82;8.82;;;;;;;12.80;100.00;99887.25;5046748;28;20193;-73
2021/10/26 05:09:26;;;;;;;10.48;9.23;;;;;;;12.70;100.00;99886.09;5049910;28;20197;-73
2021/10/26 05:11:52;;;;;;;10.50;9.00;;;;;;;12.76;100.00;99890.25;5056444;28;20186;-73
2021/10/26 05:14:19;;;;;;;9.60;8.70;;;;;;;12.76;100.00;99890.25;5060348;28;20198;-74
2021/10/26 05:16:46;;;;;;;18.20;13.70;;;;;;;12.86;100.00;99892.25;5048141;28;20199;-73
2021/10/26 05:19:14;;;;;;;9.70;8.70;;;;;;;12.80;100.00;99887.25;5052191;28;20693;-73
2021/10/26 05:21:42;;;;;;;16.05;9.45;;;;;;;12.86;100.00;99886.00;5060863;28;20632;-73
2021/10/26 05:24:10;;;;;;;12.00;9.02;;;;;;;12.66;100.00;99882.72;5048516;28;20197;-73
2021/10/26 05:26:37;;;;;;;14.45;10.32;;;;;;;12.76;100.00;99896.53;5047966;28;20178;-74
2021/10/26 05:29:04;;;;;;;11.77;10.48;;;;;;;12.73;100.00;99894.03;5051000;28;20248;-73
2021/10/26 05:31:30;;;;;;;9.85;8.20;;;;;;;12.62;100.00;99900.09;5051289;28;20194;-74
2021/10/26 05:33:57;;;;;;;10.63;8.18;;;;;;;12.72;100.00;99905.78;5049816;28;20199;-74
2021/10/26 05:36:23;;;;;;;10.45;7.82;;;;;;;12.53;100.00;99906.06;5052711;28;20211;-74
2021/10/26 05:38:52;;;;;;;9.27;7.22;;;;;;;12.46;100.00;99913.66;5047213;28;20664;-72
2021/10/26 05:41:19;;;;;;;8.77;6.90;;;;;;;12.23;100.00;99916.88;5049117;28;20578;-75
2021/10/26 05:43:46;;;;;;;8.70;6.97;;;;;;;12.34;100.00;99913.53;5045471;28;20202;-73
2021/10/26 05:46:12;;;;;;;10.73;6.80;;;;;;;12.26;100.00;99914.00;5050649;28;20191;-73
2021/10/26 05:48:39;;;;;;;10.70;7.30;;;;;;;12.31;100.00;99918.16;5046805;28;20248;-73
2021/10/26 05:51:05;;;;;;;13.25;8.60;;;;;;;12.37;100.00;99921.44;5058218;28;20186;-74
2021/10/26 05:53:33;;;;;;;11.13;7.50;;;;;;;12.26;100.00;99914.88;5047391;28;20282;-73
2021/10/26 05:56:01;;;;;;;9.80;7.75;;;;;;;12.31;100.00;99917.28;5052500;28;20292;-74
2021/10/26 05:58:28;;;;;;;9.15;7.75;;;;;;;12.39;100.00;99908.72;5048996;28;20213;-72
2021/10/26 06:00:55;;;;;;;9.40;8.40;;;;;;;12.27;100.00;99923.81;5046019;28;20197;-74
2021/10/26 06:03:21;;;;;;;8.93;7.53;;;;;;;12.21;100.00;99927.78;5052512;28;20204;-74
2021/10/26 06:05:48;;;;;;;10.80;7.85;;;;;;;12.18;100.00;99922.53;5051421;28;20197;-74
2021/10/26 06:08:15;;;;;;;11.73;8.07;;;;;;;12.45;100.00;99929.94;5052157;28;20187;-74
2021/10/26 06:10:44;;;;;;;10.95;8.43;;;;;;;12.23;100.00;99933.97;5052441;28;20608;-73
2021/10/26 06:13:18;;;;;;;14.48;8.68;;;;;;;12.16;100.00;99935.25;5052073;28;20241;-74
2021/10/26 06:15:45;;;;;;;14.05;8.38;;;;;;;12.38;100.00;99934.00;5051858;28;20256;-75
2021/10/26 06:18:12;;;;;;;11.88;8.50;;;;;;;12.40;100.00;99938.34;5052326;28;20187;-73
2021/10/26 06:20:38;;;;;;;19.50;8.70;;;;;;;12.61;100.00;99938.00;5052459;28;20217;-74
2021/10/26 06:23:05;;;;;;;9.60;8.60;;;;;;;12.61;100.00;99935.28;5051609;28;20211;-72
2021/10/26 06:25:32;;;;;;;9.10;8.13;;;;;;;12.67;100.00;99945.72;5052325;28;20218;-73
2021/10/26 06:27:59;;;;;;;11.45;8.45;;;;;;;12.79;100.00;99949.50;5052023;28;20283;-74
2021/10/26 06:30:28;;;;;;;9.20;8.15;;;;;;;12.70;100.00;99954.50;5052065;28;20223;-73
2021/10/26 06:32:54;;;;;;;8.95;7.68;;;;;;;12.54;100.00;99950.13;5051999;28;20197;-73
2021/10/26 06:35:21;;;;;;;12.63;8.85;;;;;;;12.58;100.00;99952.56;5051572;28;20293;-76
2021/10/26 06:37:48;;;;;;;10.65;8.45;;;;;;;12.75;100.00;99970.41;5051679;28;20198;-73
2021/10/26 06:40:17;;;;;;;11.95;8.98;;;;;;;12.70;100.00;99964.44;5051802;28;20256;-76
2021/10/26 06:42:43;;;;;;;12.20;8.20;;;;;;;12.88;100.00;99971.41;5051561;28;20273;-74
2021/10/26 06:45:10;;;;;;;12.80;7.88;;;;;;;12.76;100.00;99976.72;5050991;28;20189;-74
2021/10/26 06:47:39;;;;;;;12.73;9.30;;;;;;;13.02;100.00;99980.50;5050066;28;20279;-73
2021/10/26 06:50:07;;;;;;;11.75;8.52;;;;;;;12.96;100.00;99975.47;5048190;28;20182;-73
2021/10/26 06:52:36;;;;;;;10.68;9.20;;;;;;;13.08;100.00;99980.13;5050564;28;20195;-73
2021/10/26 06:55:03;;;;;;;11.88;8.60;;;;;;;12.96;100.00;99979.06;5050217;28;20245;-74
2021/10/26 06:57:30;;;;;;;12.65;9.23;;;;;;;13.17;100.00;99971.44;5049611;28;20271;-73
2021/10/26 06:59:57;;;;;;;12.95;7.45;;;;;;;13.03;100.00;99985.81;5051326;28;20187;-73
2021/10/26 07:02:24;;;;;;;10.60;8.82;;;;;;;12.94;100.00;99984.56;5051653;28;20545;-72
2021/10/26 07:04:53;;;;;;;10.15;6.85;;;;;;;12.85;100.00;99990.53;5050486;28;20189;-74
2021/10/26 07:07:20;;;;;;;11.07;8.35;;;;;;;12.97;100.00;99979.94;5050842;28;20247;-74
2021/10/26 07:09:46;;;;;;;12.13;7.38;;;;;;;12.94;100.00;99992.66;5049888;28;20512;-75
2021/10/26 07:12:13;;;;;;;9.77;6.45;;;;;;;13.02;99.88;99991.31;5052057;28;20193;-74
2021/10/26 07:14:39;;;;;;;12.15;7.47;;;;;;;13.19;98.89;99999.25;5051867;28;20194;-74
2021/10/26 07:17:06;;;;;;;9.80;7.20;;;;;;;13.15;99.38;99998.56;5051701;28;20740;-74
2021/10/26 07:19:33;;;;;;;9.95;7.35;;;;;;;12.84;100.00;100012.22;5052042;28;20636;-73
2021/10/26 07:22:01;;;;;;;10.10;6.88;;;;;;;12.88;100.00;100008.38;5051878;28;20197;-75
2021/10/26 07:24:28;;;;;;;11.52;6.78;;;;;;;12.97;100.00;100004.25;5051092;28;20550;-74
2021/10/26 07:26:54;;;;;;;11.05;7.75;;;;;;;13.02;100.00;100011.09;5055169;28;20289;-74
2021/10/26 07:29:21;;;;;;;13.02;8.57;;;;;;;13.13;98.67;100015.84;5055402;28;20243;-73
2021/10/26 07:31:48;;;;;;;10.57;6.95;;;;;;;13.22;98.54;100017.13;5055605;28;20511;-72
2021/10/26 07:34:14;;;;;;;11.85;8.25;;;;;;;13.32;97.57;100023.72;5055561;28;20363;-74
2021/10/26 07:36:43;;;;;;;12.18;7.80;;;;;;;13.42;97.82;100029.41;5054916;28;20211;-73
2021/10/26 07:39:31;;;;;;;13.98;7.72;;;;;;;13.23;97.54;100038.66;5055811;28;20625;-74
2021/10/26 07:41:59;;;;;;;11.93;8.20;;;;;;;13.13;99.17;100041.03;5054550;28;20190;-73
2021/10/26 07:44:26;;;;;;;14.20;7.35;;;;;;;13.21;98.21;100048.69;5055055;28;20632;-73
2021/10/26 07:46:53;;;;;;;14.35;8.90;;;;;;;12.99;100.00;100054.53;5054921;28;20201;-75
2021/10/26 07:49:20;;;;;;;12.50;8.50;;;;;;;12.94;100.00;100051.25;5054764;28;20194;-74
2021/10/26 07:51:47;;;;;;;10.77;8.05;;;;;;;12.79;100.00;100063.84;5055561;28;20693;-74
2021/10/26 07:54:15;;;;;;;14.00;8.90;;;;;;;12.73;100.00;100053.44;5054707;28;20256;-73
2021/10/26 07:56:42;;;;;;;13.65;8.65;;;;;;;12.90;100.00;100053.28;5055548;28;20206;-73
2021/10/26 07:59:08;;;;;;;11.77;9.43;;;;;;;13.19;100.00;100063.28;5054540;28;20273;-73
2021/10/26 08:01:35;;;;;;;9.50;7.78;;;;;;;13.49;97.46;100055.97;5055192;28;20210;-73
2021/10/26 08:04:01;;;;;;;11.32;6.97;;;;;;;13.18;99.04;100058.81;5054449;28;20196;-73
2021/10/26 08:06:28;;;;;;;10.02;7.45;;;;;;;13.22;98.23;100065.78;5055134;28;20183;-73
2021/10/26 08:08:55;;;;;;;29.83;22.45;;;;;;;13.30;97.82;100074.34;5055455;28;20202;-74
2021/10/26 08:11:24;;;;;;;11.23;8.23;;;;;;;13.37;97.80;100069.41;5054744;28;20281;-74
2021/10/26 08:13:51;;;;;;;11.10;7.20;;;;;;;13.55;95.89;100085.34;5055110;28;20192;-74
2021/10/26 08:16:17;;;;;;;9.80;8.25;;;;;;;13.50;96.35;100064.97;5055009;28;20210;-75
2021/10/26 08:18:44;;;;;;;12.40;7.88;;;;;;;13.39;97.13;100072.91;5054911;28;20186;-73
2021/10/26 08:21:12;;;;;;;14.05;7.30;;;;;;;13.52;97.50;100071.16;5041316;28;20209;-74
2021/10/26 08:23:41;;;;;;;11.93;8.95;;;;;;;13.66;96.94;100070.31;5055020;28;20198;-73
2021/10/26 08:26:13;;;;;;;14.30;9.88;;;;;;;13.34;99.43;100073.16;5054861;28;20196;-73
2021/10/26 08:28:41;;;;;;;14.10;7.78;;;;;;;13.49;97.65;100074.91;5053873;28;20226;-73
2021/10/26 08:31:18;;;;;;;11.00;8.00;;;;;;;13.37;97.79;100072.13;5054857;28;20263;-72
2021/10/26 08:34:04;;;;;;;13.75;7.72;;;;;;;13.46;97.57;100076.97;5054842;28;20202;-73
2021/10/26 08:36:31;;;;;;;13.50;9.02;;;;;;;13.48;97.47;100073.19;5054317;28;20724;-72
2021/10/26 08:38:58;;;;;;;16.17;8.75;;;;;;;13.41;97.81;100082.66;5054173;28;20183;-73
2021/10/26 08:41:26;;;;;;;13.77;8.20;;;;;;;13.19;100.00;100083.06;5054494;28;20197;-73
2021/10/26 08:43:54;;;;;;;16.60;9.73;;;;;;;13.43;97.88;100074.44;5054097;28;20198;-74
2021/10/26 08:46:21;;;;;;;17.42;8.52;;;;;;;13.38;97.71;100073.84;5053858;28;20192;-73
2021/10/26 08:48:50;;;;;;;10.52;9.43;;;;;;;13.41;98.83;100076.34;5053610;28;20209;-74
2021/10/26 08:51:18;;;;;;;16.63;8.80;;;;;;;13.43;99.01;100074.44;5053521;28;20223;-74
2021/10/26 08:53:45;;;;;;;11.15;8.80;;;;;;;13.82;95.31;100070.19;5053950;28;20191;-74
2021/10/26 08:56:12;;;;;;;13.98;10.07;;;;;;;14.02;93.19;100061.66;5054387;28;20228;-72
2021/10/26 08:58:39;;;;;;;19.02;11.88;;;;;;;14.05;93.12;100060.56;5054341;28;20725;-74
2021/10/26 09:01:07;;;;;;;13.20;7.75;;;;;;;14.45;89.37;100061.53;5053778;28;20207;-74
2021/10/26 09:03:36;;;;;;;11.90;8.25;;;;;;;14.63;88.11;100064.88;5054615;28;20533;-73
2021/10/26 09:06:04;;;;;;;21.52;14.68;;;;;;;14.69;87.45;100067.16;5053884;28;20202;-73
2021/10/26 09:08:31;;;;;;;23.77;13.80;;;;;;;14.71;87.48;100059.78;5054145;28;20194;-73
2021/10/26 09:11:03;;;;;;;14.30;9.32;;;;;;;14.77;87.51;100055.81;5054669;28;20207;-73
2021/10/26 09:16:47;;;;;;;13.20;8.50;;;;;;;14.79;86.02;100052.00;5052870;28;20219;-74
2021/10/26 09:19:16;;;;;;;12.68;9.15;;;;;;;14.64;87.88;100061.19;5053308;28;20215;-74
2021/10/26 09:21:44;;;;;;;8.82;7.75;;;;;;;15.02;85.18;100057.69;5053717;28;20192;-72
2021/10/26 09:24:13;;;;;;;11.70;8.13;;;;;;;15.25;83.83;100058.78;5053396;28;20207;-73
2021/10/26 09:26:46;;;;;;;12.05;7.80;;;;;;;15.29;81.61;100057.59;5053711;28;20287;-75
2021/10/26 09:29:14;;;;;;;13.63;8.13;;;;;;;14.99;83.24;100066.91;5053009;28;20223;-74
2021/10/26 09:31:43;;;;;;;13.63;8.05;;;;;;;14.89;84.55;100065.78;5053500;28;20696;-72
2021/10/26 09:34:13;;;;;;;13.85;7.38;;;;;;;14.95;84.98;100069.94;5053446;28;20193;-73
2021/10/26 09:36:41;;;;;;;10.23;8.05;;;;;;;15.26;83.62;100070.50;5053378;28;20211;-72
2021/10/26 09:39:14;;;;;;;9.73;6.45;;;;;;;15.16;81.48;100075.72;5053363;28;20204;-74
2021/10/26 09:42:03;;;;;;;11.35;6.97;;;;;;;14.80;84.01;100070.00;5052462;28;20189;-72
2021/10/26 09:44:33;;;;;;;11.40;6.97;;;;;;;14.55;85.17;100068.09;5049189;28;20197;-74
2021/10/26 09:47:05;;;;;;;10.82;7.05;;;;;;;14.23;87.56;100069.34;5051102;28;20185;-74
2021/10/26 09:49:34;;;;;;;11.73;7.55;;;;;;;14.44;87.67;100067.91;5053169;28;20228;-74
2021/10/26 09:52:10;;;;;;;13.02;8.07;;;;;;;14.16;88.94;100077.00;5052535;28;20594;-74
2021/10/26 09:54:37;;;;;;;12.45;8.63;;;;;;;14.11;91.57;100069.16;5052896;28;20197;-74
2021/10/26 09:57:05;;;;;;;13.32;7.55;;;;;;;14.10;92.91;100070.13;5052845;28;20224;-73
2021/10/26 09:59:32;;;;;;;10.73;9.05;;;;;;;14.00;95.10;100071.72;5052588;28;20230;-73
2021/10/26 10:01:59;;;;;;;12.00;8.90;;;;;;;14.08;95.86;100069.34;5050495;28;20198;-72
2021/10/26 10:04:31;;;;;;;11.07;7.10;;;;;;;14.21;93.62;100080.25;5052578;28;20243;-73
2021/10/26 10:06:59;;;;;;;14.60;8.77;;;;;;;14.20;96.02;100075.81;5051614;28;20202;-72
2021/10/26 10:09:26;;;;;;;15.20;9.00;;;;;;;14.40;95.01;100079.91;5052547;28;20195;-72
2021/10/26 10:12:05;;;;;;;9.75;7.93;;;;;;;14.47;94.41;100078.56;5052500;28;20294;-73
2021/10/26 10:14:35;;;;;;;13.68;8.82;;;;;;;14.48;94.81;100082.13;5052851;28;20202;-73
2021/10/26 10:17:04;;;;;;;13.60;7.25;;;;;;;14.55;93.18;100088.91;5051987;28;20282;-74
2021/10/26 10:19:35;;;;;;;7.70;6.30;;;;;;;14.32;94.27;100091.25;5052542;28;20208;-73
2021/10/26 10:22:05;;;;;;;8.52;6.90;;;;;;;14.44;94.48;100080.59;5052272;28;20189;-73
2021/10/26 10:24:38;;;;;;;8.88;7.95;;;;;;;14.60;92.51;100081.31;5052135;28;20299;-75
2021/10/26 10:27:06;;;;;;;10.07;7.13;;;;;;;15.22;88.20;100092.44;5052246;28;20214;-73
2021/10/26 10:29:34;;;;;;;8.23;6.55;;;;;;;15.19;86.79;100084.47;5052180;28;20284;-74
2021/10/26 10:32:01;;;;;;;9.65;6.78;;;;;;;15.20;86.67;100082.66;5051817;28;20581;-74
2021/10/26 10:34:30;;;;;;;7.57;5.30;;;;;;;15.22;84.66;100069.88;5052157;28;20271;-73
2021/10/26 10:37:00;;;;;;;11.40;6.47;;;;;;;15.75;82.95;100072.47;5050707;28;20219;-74
2021/10/26 10:39:33;;;;;;;8.80;7.18;;;;;;;15.85;82.54;100068.09;5051351;28;20201;-73
2021/10/26 10:42:22;;;;;;;10.18;6.80;;;;;;;16.11;80.78;100060.78;5050342;28;20193;-74
2021/10/26 10:44:48;;;;;;;7.50;5.57;;;;;;;16.52;77.74;100056.81;5044470;28;20190;-74
2021/10/26 10:47:34;;;;;;;5.60;4.88;;;;;;;16.18;77.47;100062.06;5050827;28;20663;-73
2021/10/26 10:50:01;;;;;;;11.18;5.90;;;;;;;15.99;78.59;100064.41;5050471;28;20612;-73
2021/10/26 10:52:32;;;;;;;5.25;4.78;;;;;;;15.94;78.80;100067.47;5051461;28;20741;-75
2021/10/26 10:55:01;;;;;;;9.43;5.65;;;;;;;16.04;77.98;100054.94;5051405;28;20198;-73
2021/10/26 10:57:33;;;;;;;5.75;5.25;;;;;;;16.34;76.73;100061.78;5049176;28;20252;-73
2021/10/26 11:00:04;;;;;;;6.65;4.68;;;;;;;16.55;74.79;100070.19;5049164;28;20203;-74
2021/10/26 11:02:36;;;;;;;7.03;5.22;;;;;;;16.79;74.02;100064.75;5050460;28;20572;-74
2021/10/26 11:05:05;;;;;;;7.55;5.35;;;;;;;17.01;71.34;100063.97;5050968;28;20632;-74
2021/10/26 11:07:52;;;;;;;5.25;3.95;;;;;;;16.32;74.53;100069.16;5050075;28;20193;-72
2021/10/26 11:10:21;;;;;;;6.80;4.80;;;;;;;16.62;73.57;100063.31;5032662;28;20261;-74
2021/10/26 11:12:49;;;;;;;3.85;3.50;;;;;;;16.76;72.47;100058.66;5054073;28;20201;-73
2021/10/26 11:15:21;;;;;;;4.65;4.15;;;;;;;15.56;77.65;100062.91;5051450;28;20221;-75
2021/10/26 11:17:53;;;;;;;5.80;3.97;;;;;;;15.31;79.97;100062.91;5051241;28;20644;-74
2021/10/26 11:20:49;;;;;;;5.80;3.70;;;;;;;14.88;82.18;100074.03;5050410;28;20287;-75
2021/10/26 11:23:40;;;;;;;4.18;3.72;;;;;;;14.96;83.28;100068.94;5046204;28;20605;-73
2021/10/26 11:26:15;;;;;;;6.80;4.22;;;;;;;15.35;80.96;100056.28;5044191;28;21015;-74
2021/10/26 11:28:50;;;;;;;4.57;3.60;;;;;;;15.67;76.77;100054.00;5050527;28;20314;-73
2021/10/26 11:31:23;;;;;;;5.30;4.05;;;;;;;16.24;74.04;100056.16;5049641;28;20191;-74